NCAR-RAP Real-Time Weather Data

Output produced by METARs form (06 May 2021  16:53 UTC)
found at http://weather.rap.ucar.edu/surface/
 
KPOU 061553Z 31008G16KT 10SM CLR 15/01 A2994 RMK AO2 SLP135 T01500006
KPOU 061453Z 36010G21KT 10SM CLR 14/01 A2994 RMK AO2 SLP135 T01390006 50004
KPOU 061353Z 34010G18KT 10SM FEW050 13/02 A2994 RMK AO2 SLP135 T01280017
KPOU 061253Z 33009KT 10SM CLR 12/03 A2994 RMK AO2 SLP137 T01220028
KPOU 061153Z 30010KT 10SM CLR 11/03 A2993 RMK AO2 SLP131 70038 T01060028 10106 20039 51026
KPOU 061053Z 00000KT 10SM FEW047 FEW055 06/06 A2991 RMK AO2 SLP124 T00610056
KPOU 060953Z AUTO 00000KT 10SM BKN050 04/03 A2988 RMK AO2 SLP115 T00390033 TSNO
KPOU 060921Z AUTO 00000KT 10SM SCT046 04/04 A2986 RMK AO2 T00440039 TSNO
KPOU 060912Z AUTO 13004KT 2SM BR BKN046 04/04 A2986 RMK AO2 T00440039 TSNO
KPOU 060902Z AUTO 00000KT 1/2SM FG FEW002 BKN048 04/04 A2985 RMK AO2 T00440039 TSNO
KPOU 060853Z AUTO 00000KT 1 1/4SM BR FEW002 BKN046 04/04 A2985 RMK AO2 SLP105 T00440039 53008 TSNO
KPOU 060846Z AUTO 00000KT 1 3/4SM BR FEW002 SCT044 04/04 A2985 RMK AO2 VIS 1V2 1/2 T00440039 TSNO
KPOU 060807Z AUTO 00000KT 3SM BR FEW002 04/04 A2984 RMK AO2 T00440039 TSNO
KPOU 060755Z AUTO 00000KT 1 3/4SM BR FEW002 04/04 A2983 RMK AO2 T00440039 TSNO
KPOU 060753Z AUTO 00000KT 4SM BR FEW002 05/04 A2983 RMK AO2 SLP100 T00500039 TSNO
KPOU 060750Z AUTO 00000KT 1 1/4SM BR FEW002 05/04 A2983 RMK AO2 TSNO
KPOU 060748Z AUTO 00000KT 3/4SM BR VV002 05/04 A2983 RMK AO2 TSNO
KPOU 060741Z AUTO 00000KT 1/4SM FG VV002 05/03 A2983 RMK AO2 T00500033 TSNO
KPOU 060714Z AUTO 00000KT 3/4SM BR VV002 05/04 A2983 RMK AO2 T00500039 TSNO
KPOU 060702Z AUTO 00000KT 1 3/4SM BR CLR 06/04 A2983 RMK AO2 VIS 1/2V5 T00560044 TSNO
KPOU 060656Z AUTO 00000KT 3SM BR CLR 05/05 A2983 RMK AO2 T00500050 TSNO
KPOU 060653Z AUTO 00000KT 1 1/2SM BR CLR 06/05 A2983 RMK AO2 SLP097 T00560050 TSNO
KPOU 060647Z AUTO 00000KT 1 3/4SM BR FEW002 06/05 A2983 RMK AO2 TSNO
KPOU 060635Z AUTO 00000KT 3SM BR SCT001 06/05 A2983 RMK AO2 T00560050 TSNO
KPOU 060632Z AUTO 00000KT 1 3/4SM BR SCT001 06/05 A2983 RMK AO2 VIS 3/4V4 T00560050 TSNO
KPOU 060626Z AUTO 00000KT 3/4SM BR VV001 06/05 A2983 RMK AO2 T00560050 TSNO
KPOU 060553Z AUTO 00000KT 1/4SM FG VV002 06/05 A2983 RMK AO2 SLP098 60008 T00560050 10133 20056 53003 TSNO
KPOU 060536Z AUTO 00000KT 1/4SM FG VV002 07/06 A2983 RMK AO2 T00670056 TSNO
KPOU 060524Z AUTO 00000KT 3/4SM BR VV002 07/06 A2983 RMK AO2 T00670056 TSNO
KPOU 060514Z AUTO 00000KT 3/4SM BR CLR 07/06 A2983 RMK AO2 T00720061 TSNO
KPOU 060507Z AUTO 00000KT 2SM BR CLR 07/07 A2983 RMK AO2 VIS 3/4V5 T00720067 TSNO
KPOU 060453Z AUTO 00000KT 3SM BR CLR 07/06 A2983 RMK AO2 SLP097 T00720061 401440072 TSNO
KPOU 060353Z AUTO 32004KT 8SM CLR 08/08 A2981 RMK AO2 SLP091 T00830078 TSNO
KPOU 060253Z AUTO 29005KT 10SM FEW047 11/08 A2982 RMK AO2 SLP094 60008 T01060078 51024 TSNO
KPOU 060153Z AUTO 29004KT 10SM OVC085 12/10 A2981 RMK AO2 SLP093 T01170100 TSNO